Time;durP1;ratioP1;P1;durP2;ratioP2;P2;SDS_P1;SDS_P2;PMS_P1;PMS_P2;Temp;Humidity;BMP_temperature;BMP_pressure;BME280_temperature;BME280_humidity;BME280_pressure;Samples;Min_cycle;Max_cycle;Signal;HPM_P1;HPM_P2
2021/11/22 00:02:43;;;;;;;12.25;9.10;;;7.50;99.90;;;;;;5061520;28;20330;-71
2021/11/22 00:05:30;;;;;;;13.52;9.27;;;7.60;99.90;;;;;;5054276;28;20208;-71
2021/11/22 00:08:16;;;;;;;10.53;8.53;;;7.60;99.90;;;;;;5058488;28;20208;-71
2021/11/22 00:11:01;;;;;;;11.73;8.10;;;7.60;99.90;;;;;;5094083;28;20595;-71
2021/11/22 00:13:47;;;;;;;10.30;7.38;;;7.70;99.90;;;;;;5083516;28;20235;-71
2021/11/22 00:16:33;;;;;;;12.35;8.65;;;7.60;99.90;;;;;;5093369;28;20211;-71
2021/11/22 00:19:18;;;;;;;11.43;8.45;;;7.60;99.90;;;;;;5090869;28;20208;-71
2021/11/22 00:22:06;;;;;;;9.95;8.20;;;7.60;99.90;;;;;;5086423;28;20208;-71
2021/11/22 00:24:52;;;;;;;17.73;9.60;;;7.60;99.90;;;;;;5073995;28;20247;-71
2021/11/22 00:27:38;;;;;;;11.10;7.67;;;7.50;99.90;;;;;;5073890;28;20330;-71
2021/11/22 00:30:23;;;;;;;10.80;6.85;;;7.50;99.90;;;;;;5064510;28;20553;-71
2021/11/22 00:33:10;;;;;;;17.83;7.53;;;7.50;99.90;;;;;;5073262;28;20294;-71
2021/11/22 00:35:56;;;;;;;9.30;7.25;;;7.40;99.90;;;;;;5074284;28;20224;-71
2021/11/22 00:38:43;;;;;;;21.15;8.40;;;7.50;99.90;;;;;;5073687;28;20200;-71
2021/11/22 00:41:30;;;;;;;9.83;7.90;;;7.50;99.90;;;;;;5073874;28;20200;-71
2021/11/22 00:44:16;;;;;;;10.70;7.57;;;7.60;99.90;;;;;;5073215;28;20641;-71
2021/11/22 00:47:02;;;;;;;10.57;8.02;;;7.60;99.90;;;;;;5073772;28;20423;-71
2021/11/22 00:49:48;;;;;;;10.88;8.00;;;7.60;99.90;;;;;;5073374;28;20220;-71
2021/11/22 00:52:33;;;;;;;9.43;7.07;;;7.50;99.90;;;;;;5073094;28;20249;-71
2021/11/22 00:55:20;;;;;;;10.90;7.20;;;7.60;99.90;;;;;;5073502;28;20444;-71
2021/11/22 00:58:06;;;;;;;9.75;6.90;;;7.60;99.90;;;;;;5071269;28;20443;-71
2021/11/22 01:00:51;;;;;;;8.35;6.45;;;7.60;99.90;;;;;;5064950;28;20263;-71
2021/11/22 01:03:37;;;;;;;7.45;6.00;;;7.60;99.90;;;;;;5072613;28;20243;-71
2021/11/22 01:06:23;;;;;;;8.15;6.35;;;7.70;99.90;;;;;;5073275;28;20208;-71
2021/11/22 01:09:09;;;;;;;11.15;7.13;;;7.70;99.90;;;;;;5073306;28;20243;-71
2021/11/22 01:11:57;;;;;;;7.93;6.67;;;7.70;99.90;;;;;;5073126;28;20666;-71
2021/11/22 01:14:42;;;;;;;13.40;7.10;;;7.70;99.90;;;;;;5072750;28;21067;-71
2021/11/22 01:17:28;;;;;;;10.50;6.50;;;7.70;99.90;;;;;;5073059;28;20330;-71
2021/11/22 01:20:19;;;;;;;9.88;7.00;;;7.70;99.90;;;;;;5072857;28;20573;-74
2021/11/22 01:23:07;;;;;;;12.18;7.30;;;7.60;99.90;;;;;;5072533;28;20192;-74
2021/11/22 01:25:53;;;;;;;10.27;7.53;;;7.60;99.90;;;;;;5072916;28;20324;-72
2021/11/22 01:28:40;;;;;;;12.35;8.35;;;7.60;99.90;;;;;;5068660;28;20201;-72
2021/11/22 01:31:26;;;;;;;11.40;8.18;;;7.60;99.90;;;;;;5060884;28;20732;-72
2021/11/22 01:34:11;;;;;;;10.98;7.50;;;7.50;99.90;;;;;;5052243;28;20228;-72
2021/11/22 01:36:57;;;;;;;14.75;9.50;;;7.50;99.90;;;;;;5052719;28;20332;-72
2021/11/22 01:39:42;;;;;;;10.35;7.68;;;7.60;99.90;;;;;;5052573;28;20629;-72
2021/11/22 01:42:28;;;;;;;16.40;10.27;;;7.60;99.90;;;;;;5052249;28;20204;-72
2021/11/22 01:45:17;;;;;;;12.73;8.05;;;7.60;99.90;;;;;;5052462;28;20474;-72
2021/11/22 01:48:03;;;;;;;12.90;8.43;;;7.50;99.90;;;;;;5052566;28;20213;-72
2021/11/22 01:50:49;;;;;;;13.90;9.07;;;7.60;99.90;;;;;;5052302;28;20232;-72
2021/11/22 01:53:35;;;;;;;15.77;10.50;;;7.50;99.90;;;;;;5051949;28;20486;-72
2021/11/22 01:56:21;;;;;;;13.30;9.25;;;7.50;99.90;;;;;;5052388;28;20207;-72
2021/11/22 01:59:07;;;;;;;17.45;9.70;;;7.60;99.90;;;;;;5062693;28;20208;-72
2021/11/22 02:01:54;;;;;;;16.17;9.85;;;7.60;99.90;;;;;;5066408;28;20200;-72
2021/11/22 02:04:40;;;;;;;18.02;10.32;;;7.60;99.90;;;;;;5096781;22;20345;-73
2021/11/22 02:07:26;;;;;;;19.38;10.10;;;7.60;99.90;;;;;;5092556;28;20293;-73
2021/11/22 02:10:12;;;;;;;21.27;10.33;;;7.50;99.90;;;;;;5090513;28;20220;-73
2021/11/22 02:12:59;;;;;;;17.23;10.48;;;7.40;99.90;;;;;;5091993;28;20507;-73
2021/11/22 02:15:46;;;;;;;17.15;10.70;;;7.50;99.90;;;;;;5072013;28;20203;-73
2021/11/22 02:18:32;;;;;;;18.75;11.48;;;7.50;99.90;;;;;;5072068;28;20203;-73
2021/11/22 02:21:20;;;;;;;17.42;11.20;;;7.50;99.90;;;;;;5071961;28;20216;-73
2021/11/22 02:24:06;;;;;;;18.20;11.02;;;7.50;99.90;;;;;;5071528;28;20223;-73
2021/11/22 02:26:51;;;;;;;24.17;12.52;;;7.40;99.90;;;;;;5071912;28;20208;-73
2021/11/22 02:29:37;;;;;;;19.43;12.00;;;7.50;99.90;;;;;;5059599;28;20553;-73
2021/11/22 02:32:23;;;;;;;21.98;12.30;;;7.60;99.90;;;;;;5069891;28;20489;-73
2021/11/22 02:35:11;;;;;;;21.10;12.02;;;7.60;99.90;;;;;;5071301;28;20239;-73
2021/11/22 02:37:58;;;;;;;20.73;12.60;;;7.60;99.90;;;;;;5071921;28;20208;-73
2021/11/22 02:40:43;;;;;;;18.50;11.43;;;7.60;99.90;;;;;;5071721;28;20204;-73
2021/11/22 02:43:31;;;;;;;21.83;12.00;;;7.60;99.90;;;;;;5071317;28;20687;-73
2021/11/22 02:46:17;;;;;;;21.60;12.85;;;7.50;99.90;;;;;;5071726;28;20200;-73
2021/11/22 02:49:02;;;;;;;21.98;12.40;;;7.50;99.90;;;;;;5071672;28;20274;-73
2021/11/22 02:51:51;;;;;;;21.23;11.88;;;7.50;99.90;;;;;;5071698;28;20254;-73
2021/11/22 02:54:38;;;;;;;22.15;13.18;;;7.40;99.90;;;;;;5071196;28;20728;-73
2021/11/22 02:57:23;;;;;;;29.88;12.68;;;7.40;99.90;;;;;;5071700;28;20700;-73
2021/11/22 03:00:13;;;;;;;21.95;11.73;;;7.50;99.90;;;;;;5060696;28;20678;-73
2021/11/22 03:02:59;;;;;;;21.25;12.65;;;7.50;99.90;;;;;;5051415;28;20336;-73
2021/11/22 03:05:45;;;;;;;23.70;12.63;;;7.50;99.90;;;;;;5051375;28;20209;-73
2021/11/22 03:08:30;;;;;;;25.20;13.50;;;7.50;99.90;;;;;;5051457;28;20200;-73
2021/11/22 03:11:18;;;;;;;21.83;13.82;;;7.60;99.90;;;;;;5051161;28;20244;-73
2021/11/22 03:14:04;;;;;;;33.83;12.83;;;7.60;99.90;;;;;;5051027;28;20237;-73
2021/11/22 03:16:50;;;;;;;24.35;12.45;;;7.60;99.90;;;;;;5070455;28;20458;-73
2021/11/22 03:19:36;;;;;;;28.08;14.93;;;7.60;99.90;;;;;;5071282;28;20242;-73
2021/11/22 03:22:21;;;;;;;24.23;14.50;;;7.60;99.90;;;;;;5071018;28;20220;-72
2021/11/22 03:25:09;;;;;;;23.02;15.02;;;7.60;99.90;;;;;;5071239;28;20216;-73
2021/11/22 03:27:56;;;;;;;22.05;14.43;;;7.60;99.90;;;;;;5071360;28;20418;-73
2021/11/22 03:30:42;;;;;;;31.05;13.90;;;7.70;99.90;;;;;;5059386;28;20339;-73
2021/11/22 03:33:28;;;;;;;24.50;14.43;;;7.60;99.90;;;;;;5050709;28;20200;-72
2021/11/22 03:36:14;;;;;;;26.70;13.68;;;7.60;99.90;;;;;;5051187;28;20994;-73
2021/11/22 03:39:00;;;;;;;33.17;14.75;;;7.60;99.90;;;;;;5051225;28;20579;-73
2021/11/22 03:41:46;;;;;;;25.17;13.65;;;7.50;99.90;;;;;;5051206;28;20205;-73
2021/11/22 03:44:34;;;;;;;27.73;15.82;;;7.50;99.90;;;;;;5050655;28;20221;-73
2021/11/22 03:47:19;;;;;;;24.15;15.68;;;7.50;99.90;;;;;;5052424;28;20324;-73
2021/11/22 03:50:05;;;;;;;24.35;14.48;;;7.60;99.90;;;;;;5054709;28;20204;-73
2021/11/22 03:52:51;;;;;;;25.95;15.00;;;7.60;99.90;;;;;;5054354;28;20197;-73
2021/11/22 03:55:37;;;;;;;26.20;14.10;;;7.60;99.90;;;;;;5054535;28;20225;-73
2021/11/22 03:58:23;;;;;;;33.95;14.50;;;7.50;99.90;;;;;;5056463;28;20205;-73
2021/11/22 04:01:10;;;;;;;25.98;14.40;;;7.60;99.90;;;;;;5066023;28;20246;-73
2021/11/22 04:03:56;;;;;;;27.08;16.13;;;7.60;99.90;;;;;;5074017;28;20274;-73
2021/11/22 04:06:41;;;;;;;30.23;15.95;;;7.50;99.90;;;;;;5074466;28;20254;-73
2021/11/22 04:09:27;;;;;;;30.60;15.07;;;7.60;99.90;;;;;;5072659;28;20204;-73
2021/11/22 04:12:13;;;;;;;26.02;14.25;;;7.60;99.90;;;;;;5074242;28;20366;-73
2021/11/22 04:14:58;;;;;;;32.75;16.30;;;7.60;99.90;;;;;;5074164;28;20243;-73
2021/11/22 04:17:46;;;;;;;27.52;16.13;;;7.60;99.90;;;;;;5074249;28;20677;-73
2021/11/22 04:20:31;;;;;;;28.70;15.98;;;7.60;99.90;;;;;;5074192;28;20679;-73
2021/11/22 04:23:17;;;;;;;29.67;16.20;;;7.70;99.90;;;;;;5073767;28;20204;-73
2021/11/22 04:26:02;;;;;;;26.20;16.27;;;7.70;99.90;;;;;;5074025;28;20275;-73
2021/11/22 04:28:49;;;;;;;30.55;14.98;;;7.70;99.90;;;;;;5068610;28;20336;-73
2021/11/22 04:31:34;;;;;;;27.77;15.40;;;7.70;99.90;;;;;;5065464;28;20223;-73
2021/11/22 04:34:21;;;;;;;28.38;15.55;;;7.70;99.90;;;;;;5073457;28;20224;-73
2021/11/22 04:37:07;;;;;;;24.23;14.38;;;7.70;99.90;;;;;;5073875;28;20247;-73
2021/11/22 04:39:53;;;;;;;23.00;14.23;;;7.70;99.90;;;;;;5073837;28;20204;-73
2021/11/22 04:42:39;;;;;;;26.42;14.68;;;7.70;99.90;;;;;;5073338;28;20665;-73
2021/11/22 04:45:28;;;;;;;24.92;13.57;;;7.70;99.90;;;;;;5073634;28;20290;-73
2021/11/22 04:48:14;;;;;;;27.00;13.82;;;7.70;99.90;;;;;;5073775;28;20196;-73
2021/11/22 04:51:01;;;;;;;26.40;13.18;;;7.70;99.90;;;;;;5073425;28;20701;-73
2021/11/22 04:53:47;;;;;;;20.45;12.77;;;7.70;99.90;;;;;;5073147;28;20224;-73
2021/11/22 04:56:32;;;;;;;28.77;15.13;;;7.70;99.90;;;;;;5073452;28;20688;-73
2021/11/22 04:59:18;;;;;;;27.83;12.70;;;7.70;99.90;;;;;;5069127;28;20290;-73
2021/11/22 05:02:05;;;;;;;20.52;12.63;;;7.70;99.90;;;;;;5068998;28;20200;-73
2021/11/22 05:04:50;;;;;;;20.40;13.30;;;7.70;99.90;;;;;;5073235;28;20240;-73
2021/11/22 05:07:39;;;;;;;22.15;13.70;;;7.70;99.90;;;;;;5073053;28;20208;-73
2021/11/22 05:10:28;;;;;;;18.08;11.65;;;7.70;99.90;;;;;;5072112;28;20254;-73
2021/11/22 05:13:16;;;;;;;18.98;11.75;;;7.60;99.90;;;;;;5072870;28;20331;-73
2021/11/22 05:16:02;;;;;;;16.25;11.73;;;7.60;99.90;;;;;;5073010;28;20339;-73
2021/11/22 05:18:47;;;;;;;20.75;11.35;;;7.60;99.90;;;;;;5073018;28;20208;-73
2021/11/22 05:21:33;;;;;;;20.05;11.18;;;7.60;99.90;;;;;;5072927;28;20263;-73
2021/11/22 05:24:20;;;;;;;24.75;11.73;;;7.50;99.90;;;;;;5072382;28;20754;-73
2021/11/22 05:27:05;;;;;;;19.85;10.90;;;7.50;99.90;;;;;;5072849;28;20216;-73
2021/11/22 05:29:51;;;;;;;15.73;9.47;;;7.60;99.90;;;;;;5058746;28;20685;-73
2021/11/22 05:32:36;;;;;;;16.77;10.45;;;7.60;99.90;;;;;;5052173;28;20518;-73
2021/11/22 05:35:22;;;;;;;15.15;10.82;;;7.60;99.90;;;;;;5052693;28;20221;-73
2021/11/22 05:38:08;;;;;;;13.65;9.00;;;7.50;99.90;;;;;;5052782;28;20209;-73
2021/11/22 05:40:55;;;;;;;22.35;11.07;;;7.50;99.90;;;;;;5052558;28;20204;-73
2021/11/22 05:43:41;;;;;;;16.15;9.88;;;7.40;99.90;;;;;;5052251;28;20225;-73
2021/11/22 05:46:26;;;;;;;21.30;9.55;;;7.40;99.90;;;;;;5052524;28;20433;-73
2021/11/22 05:49:12;;;;;;;15.48;9.80;;;7.40;99.90;;;;;;5052515;28;20680;-73
2021/11/22 05:51:58;;;;;;;16.10;10.35;;;7.40;99.90;;;;;;5052319;28;20220;-73
2021/11/22 05:54:49;;;;;;;22.25;11.32;;;7.30;99.90;;;;;;5052185;28;20220;-73
2021/11/22 05:57:36;;;;;;;17.47;11.00;;;7.30;99.90;;;;;;5052203;28;20200;-73
2021/11/22 06:00:21;;;;;;;15.38;10.35;;;7.30;99.90;;;;;;5062083;28;20415;-73
2021/11/22 06:03:07;;;;;;;27.63;11.47;;;7.30;99.90;;;;;;5071897;28;20258;-73
2021/11/22 06:05:53;;;;;;;18.80;10.70;;;7.30;99.90;;;;;;5072301;28;20414;-73
2021/11/22 06:08:39;;;;;;;14.13;9.68;;;7.30;99.90;;;;;;5070836;28;20481;-73
2021/11/22 06:11:25;;;;;;;15.10;8.80;;;7.30;99.90;;;;;;5071522;28;20235;-73
2021/11/22 06:14:11;;;;;;;17.83;9.65;;;7.20;99.90;;;;;;5071682;28;20305;-73
2021/11/22 06:16:57;;;;;;;15.27;9.30;;;7.20;99.90;;;;;;5071954;28;20211;-73
2021/11/22 06:19:43;;;;;;;19.58;10.70;;;7.20;99.90;;;;;;5072000;28;20239;-73
2021/11/22 06:22:28;;;;;;;11.70;8.70;;;7.20;99.90;;;;;;5071429;28;20196;-73
2021/11/22 06:25:14;;;;;;;13.15;8.98;;;7.20;99.90;;;;;;5071904;28;20588;-73
2021/11/22 06:28:00;;;;;;;15.73;10.68;;;7.20;99.90;;;;;;5071902;28;20200;-73
2021/11/22 06:30:47;;;;;;;25.05;9.70;;;7.10;99.90;;;;;;5060543;28;20296;-73
2021/11/22 06:33:33;;;;;;;17.10;9.85;;;7.20;99.90;;;;;;5051290;28;20197;-73
2021/11/22 06:36:19;;;;;;;17.85;8.57;;;7.20;99.90;;;;;;5051909;28;20272;-73
2021/11/22 06:39:04;;;;;;;15.77;9.75;;;7.20;99.90;;;;;;5051815;28;20201;-73
2021/11/22 06:41:50;;;;;;;15.57;9.35;;;7.10;99.90;;;;;;5051708;28;20789;-73
2021/11/22 06:44:36;;;;;;;15.00;8.70;;;7.10;99.90;;;;;;5051728;28;20266;-73
2021/11/22 06:47:24;;;;;;;19.60;9.80;;;7.10;99.90;;;;;;5051654;28;20196;-73
2021/11/22 06:50:10;;;;;;;21.67;9.85;;;7.10;99.90;;;;;;5051703;28;20221;-73
2021/11/22 06:52:56;;;;;;;11.90;8.60;;;7.00;99.90;;;;;;5051441;28;20288;-73
2021/11/22 06:55:41;;;;;;;25.02;9.40;;;7.10;99.90;;;;;;5051488;28;20347;-73
2021/11/22 06:58:27;;;;;;;15.15;8.85;;;7.10;99.90;;;;;;5053875;28;20209;-73
2021/11/22 07:01:13;;;;;;;20.20;9.25;;;7.00;99.90;;;;;;5063217;28;20270;-73
2021/11/22 07:04:00;;;;;;;18.40;11.95;;;7.10;99.90;;;;;;5071190;28;20775;-73
2021/11/22 07:06:46;;;;;;;18.38;10.50;;;7.00;99.90;;;;;;5071580;28;20196;-73
2021/11/22 07:09:32;;;;;;;24.42;10.52;;;7.00;99.90;;;;;;5070225;28;20671;-73
2021/11/22 07:12:18;;;;;;;15.02;10.30;;;7.10;99.90;;;;;;5071273;28;20729;-73
2021/11/22 07:15:05;;;;;;;14.93;8.90;;;7.00;99.90;;;;;;5071394;28;20232;-73
2021/11/22 07:17:52;;;;;;;15.35;9.38;;;7.10;99.90;;;;;;5071343;28;20286;-73
2021/11/22 07:20:40;;;;;;;12.40;9.00;;;7.10;99.90;;;;;;5071684;28;20204;-73
2021/11/22 07:23:26;;;;;;;11.05;8.45;;;7.10;99.90;;;;;;5074836;28;20196;-73
2021/11/22 07:26:12;;;;;;;15.50;10.45;;;7.20;99.90;;;;;;5075293;28;20199;-73
2021/11/22 07:28:57;;;;;;;13.30;9.85;;;7.10;99.90;;;;;;5068408;28;20294;-73
2021/11/22 07:31:43;;;;;;;14.90;9.75;;;7.20;99.90;;;;;;5067900;28;20298;-73
2021/11/22 07:34:29;;;;;;;17.05;11.02;;;7.20;99.90;;;;;;5074596;28;20694;-73
2021/11/22 07:37:16;;;;;;;20.10;10.55;;;7.20;99.90;;;;;;5074995;28;20204;-73
2021/11/22 07:40:03;;;;;;;12.57;8.48;;;7.10;99.90;;;;;;5074881;28;20700;-73
2021/11/22 07:42:49;;;;;;;16.67;9.32;;;7.20;99.90;;;;;;5074686;28;20196;-73
2021/11/22 07:45:35;;;;;;;13.05;9.63;;;7.20;99.90;;;;;;5074751;28;20224;-73
2021/11/22 07:48:21;;;;;;;16.45;9.15;;;7.20;99.90;;;;;;5074788;28;20203;-73
2021/11/22 07:51:06;;;;;;;14.50;7.68;;;7.20;99.90;;;;;;5074786;28;20200;-73
2021/11/22 07:53:53;;;;;;;14.85;8.18;;;7.20;99.90;;;;;;5074325;28;20215;-73
2021/11/22 07:56:39;;;;;;;17.58;8.13;;;7.20;99.90;;;;;;5074719;28;20323;-73
2021/11/22 07:59:25;;;;;;;15.15;8.75;;;7.20;99.90;;;;;;5069674;28;20208;-73
2021/11/22 08:02:10;;;;;;;16.92;7.75;;;7.20;99.90;;;;;;5071158;28;20193;-73
2021/11/22 08:04:56;;;;;;;14.80;7.60;;;7.20;99.90;;;;;;5074807;28;20236;-73
2021/11/22 08:07:42;;;;;;;13.38;7.22;;;7.20;99.90;;;;;;5074265;28;20208;-73
2021/11/22 08:10:30;;;;;;;17.45;6.95;;;7.20;99.90;;;;;;5073152;28;20199;-73
2021/11/22 08:13:16;;;;;;;14.30;7.57;;;7.20;99.90;;;;;;5073688;28;20215;-73
2021/11/22 08:16:04;;;;;;;21.00;7.75;;;7.30;99.90;;;;;;5074338;28;20210;-73
2021/11/22 08:18:50;;;;;;;15.45;7.35;;;7.30;99.90;;;;;;5074139;28;20226;-74
2021/11/22 08:21:37;;;;;;;10.82;7.47;;;7.20;99.90;;;;;;5074082;28;20582;-73
2021/11/22 08:24:26;;;;;;;9.75;5.95;;;7.20;99.90;;;;;;5073755;28;20223;-73
2021/11/22 08:27:13;;;;;;;14.00;7.00;;;7.20;99.90;;;;;;5074149;28;20600;-73
2021/11/22 08:30:01;;;;;;;14.70;6.30;;;7.20;99.90;;;;;;5058733;28;20263;-74
2021/11/22 08:32:49;;;;;;;13.13;6.38;;;7.30;99.90;;;;;;5052794;28;20224;-73
2021/11/22 08:35:34;;;;;;;11.77;5.45;;;7.30;99.90;;;;;;5053882;28;20229;-73
2021/11/22 08:38:20;;;;;;;12.55;6.13;;;7.20;99.90;;;;;;5053761;28;20205;-73
2021/11/22 08:41:06;;;;;;;11.75;5.97;;;7.20;99.90;;;;;;5053876;28;20247;-73
2021/11/22 08:43:53;;;;;;;8.82;5.60;;;7.20;99.90;;;;;;5053254;28;20351;-73
2021/11/22 08:46:40;;;;;;;10.05;6.05;;;7.20;99.90;;;;;;5053682;28;20189;-73
2021/11/22 08:49:25;;;;;;;7.00;5.72;;;7.20;99.90;;;;;;5053871;28;20205;-73
2021/11/22 08:52:12;;;;;;;10.25;5.85;;;7.20;99.90;;;;;;5053551;28;20708;-73
2021/11/22 08:54:57;;;;;;;9.68;6.25;;;7.10;99.90;;;;;;5053458;28;20689;-73
2021/11/22 08:57:43;;;;;;;14.77;5.90;;;7.10;99.90;;;;;;5053507;28;20243;-73
2021/11/22 09:00:34;;;;;;;9.35;5.70;;;7.10;99.90;;;;;;5064089;28;20204;-73
2021/11/22 09:03:19;;;;;;;9.10;5.60;;;7.00;99.90;;;;;;5073123;28;20177;-73
2021/11/22 09:06:05;;;;;;;11.70;5.78;;;7.00;99.90;;;;;;5073321;28;20208;-73
2021/11/22 09:08:51;;;;;;;14.43;5.38;;;6.90;99.90;;;;;;5071832;28;20208;-73
2021/11/22 09:11:37;;;;;;;9.13;5.20;;;6.90;99.90;;;;;;5073054;28;20200;-73
2021/11/22 09:14:23;;;;;;;8.73;5.30;;;6.90;99.90;;;;;;5072726;28;20347;-73
2021/11/22 09:17:10;;;;;;;11.60;6.63;;;6.90;99.90;;;;;;5073223;28;20571;-73
2021/11/22 09:19:55;;;;;;;14.82;6.82;;;6.90;99.90;;;;;;5072937;28;20203;-73
2021/11/22 09:22:42;;;;;;;11.82;5.30;;;7.00;99.90;;;;;;5072758;28;20242;-73
2021/11/22 09:25:27;;;;;;;10.90;4.97;;;7.00;99.90;;;;;;5072819;28;20310;-73
2021/11/22 09:28:13;;;;;;;10.07;5.72;;;6.90;99.90;;;;;;5072211;28;20380;-73
2021/11/22 09:30:58;;;;;;;7.82;5.28;;;6.90;99.90;;;;;;5059498;28;20250;-73
2021/11/22 09:33:46;;;;;;;10.50;5.50;;;7.00;99.90;;;;;;5072155;28;20232;-73
2021/11/22 09:36:32;;;;;;;6.88;5.05;;;7.10;99.90;;;;;;5072679;28;20204;-73
2021/11/22 09:39:22;;;;;;;10.88;5.20;;;7.20;99.90;;;;;;5072694;28;20212;-73
2021/11/22 09:42:07;;;;;;;8.93;4.90;;;7.40;99.90;;;;;;5072611;28;20200;-73
2021/11/22 09:44:53;;;;;;;13.80;6.30;;;7.60;99.90;;;;;;5071362;28;20441;-73
2021/11/22 09:47:39;;;;;;;7.68;5.05;;;7.70;99.90;;;;;;5071155;28;20199;-73
2021/11/22 09:50:27;;;;;;;11.27;5.80;;;7.90;99.90;;;;;;5061754;28;20207;-71
2021/11/22 09:53:13;;;;;;;12.60;4.90;;;8.10;99.90;;;;;;5070545;28;21057;-71
2021/11/22 09:55:59;;;;;;;12.02;4.75;;;8.40;99.90;;;;;;5063408;28;20436;-70
2021/11/22 09:58:45;;;;;;;6.77;4.53;;;8.50;99.90;;;;;;5054700;28;20247;-72
2021/11/22 10:01:34;;;;;;;11.40;4.50;;;8.70;99.90;;;;;;5062208;28;20420;-71
2021/11/22 10:04:20;;;;;;;6.23;3.87;;;8.80;99.90;;;;;;5067307;28;20482;-71
2021/11/22 10:07:08;;;;;;;5.40;3.80;;;8.90;99.90;;;;;;5069668;28;20401;-73
2021/11/22 10:09:55;;;;;;;6.20;3.97;;;9.00;99.90;;;;;;5059618;28;20591;-73
2021/11/22 10:12:42;;;;;;;8.50;3.30;;;9.00;99.90;;;;;;5055858;28;20549;-73
2021/11/22 10:15:32;;;;;;;6.72;3.33;;;8.90;99.90;;;;;;5061790;28;20957;-73
2021/11/22 10:18:19;;;;;;;7.17;4.03;;;8.80;99.90;;;;;;5069524;28;20335;-74
2021/11/22 10:21:08;;;;;;;9.03;3.97;;;8.70;99.90;;;;;;5059708;28;20420;-73
2021/11/22 10:24:01;;;;;;;8.87;2.90;;;8.70;99.90;;;;;;5059731;28;20435;-73
2021/11/22 10:26:49;;;;;;;5.20;3.40;;;8.60;99.90;;;;;;5061234;28;20439;-73
2021/11/22 10:29:35;;;;;;;5.35;3.42;;;8.50;99.90;;;;;;5055356;28;20682;-73
2021/11/22 10:32:33;;;;;;;6.63;3.50;;;8.50;99.90;;;;;;5066192;28;20262;-73
2021/11/22 10:35:20;;;;;;;6.93;3.88;;;8.30;99.90;;;;;;5061208;28;20522;-72
2021/11/22 10:38:10;;;;;;;4.68;3.25;;;8.30;99.90;;;;;;5067835;28;20208;-73
2021/11/22 10:40:59;;;;;;;10.18;3.90;;;8.20;99.90;;;;;;5071580;28;20200;-73
2021/11/22 10:43:50;;;;;;;7.88;4.25;;;8.20;99.90;;;;;;5071531;28;20216;-73
2021/11/22 10:46:41;;;;;;;5.70;3.55;;;8.30;99.90;;;;;;5071654;28;20748;-72
2021/11/22 10:49:34;;;;;;;6.82;4.00;;;8.40;99.90;;;;;;5071569;28;20200;-72
2021/11/22 10:52:26;;;;;;;4.97;3.70;;;8.60;99.90;;;;;;5067424;28;20196;-73
2021/11/22 10:55:13;;;;;;;8.37;3.87;;;8.80;99.90;;;;;;5051493;28;20444;-72
2021/11/22 10:58:00;;;;;;;5.60;3.80;;;9.00;99.90;;;;;;5056767;28;20446;-73
2021/11/22 11:00:46;;;;;;;5.97;3.93;;;9.20;99.90;;;;;;5063696;28;20805;-72
2021/11/22 11:03:32;;;;;;;5.27;3.67;;;9.50;99.90;;;;;;5055096;28;20398;-74
2021/11/22 11:06:18;;;;;;;5.47;3.50;;;9.50;99.90;;;;;;5055520;28;20427;-74
2021/11/22 11:09:05;;;;;;;10.00;3.63;;;9.50;99.90;;;;;;5062330;28;20461;-73
2021/11/22 11:11:56;;;;;;;6.67;3.80;;;9.50;99.90;;;;;;5058033;28;20899;-73
2021/11/22 11:14:44;;;;;;;4.73;3.53;;;9.40;99.90;;;;;;5061510;28;20466;-73
2021/11/22 11:17:33;;;;;;;7.93;3.73;;;9.40;99.90;;;;;;5075360;28;20431;-73
2021/11/22 11:20:21;;;;;;;4.00;3.13;;;9.40;99.90;;;;;;5075249;28;20481;-73
2021/11/22 11:23:07;;;;;;;3.40;3.10;;;9.40;99.90;;;;;;5074903;28;20809;-73
2021/11/22 11:25:53;;;;;;;5.67;3.47;;;9.30;99.90;;;;;;5065949;28;20425;-73
2021/11/22 11:28:38;;;;;;;6.00;3.50;;;9.10;99.90;;;;;;5065353;28;20537;-73
2021/11/22 11:31:26;;;;;;;11.55;4.88;;;9.00;99.90;;;;;;5067781;28;20530;-73
2021/11/22 11:34:14;;;;;;;7.40;3.70;;;8.90;99.90;;;;;;5071283;28;20243;-73
2021/11/22 11:37:20;;;;;;;6.87;4.00;;;8.80;99.90;;;;;;5074692;28;20443;-73
2021/11/22 11:40:31;;;;;;;6.77;4.10;;;8.70;99.90;;;;;;5062572;28;20401;-73
2021/11/22 11:43:43;;;;;;;6.00;3.13;;;8.70;99.90;;;;;;5070272;28;20385;-74
2021/11/22 11:46:43;;;;;;;4.90;3.30;;;8.60;99.90;;;;;;5054784;28;20554;-74
2021/11/22 11:49:33;;;;;;;4.35;3.30;;;8.50;99.90;;;;;;5058919;28;20442;-74
2021/11/22 11:52:24;;;;;;;5.73;3.40;;;8.40;99.90;;;;;;5064827;28;20625;-74
2021/11/22 11:55:14;;;;;;;5.63;3.20;;;8.40;99.90;;;;;;5066188;28;20450;-74
2021/11/22 11:58:20;;;;;;;7.63;3.67;;;8.40;99.90;;;;;;5061462;28;20442;-74
2021/11/22 12:01:12;;;;;;;3.92;3.00;;;8.40;99.90;;;;;;5054501;28;20690;-73
2021/11/22 12:04:07;;;;;;;9.80;3.38;;;8.50;99.90;;;;;;5063897;28;20239;-74
2021/11/22 12:06:54;;;;;;;5.32;3.40;;;8.50;99.90;;;;;;5063397;28;20205;-74
2021/11/22 12:09:41;;;;;;;3.80;2.95;;;8.50;99.90;;;;;;5072470;28;20212;-73
2021/11/22 12:12:34;;;;;;;7.75;3.35;;;8.50;99.90;;;;;;5064417;28;20204;-73
2021/11/22 12:15:26;;;;;;;3.65;2.65;;;8.50;99.90;;;;;;5063158;28;20222;-73
2021/11/22 12:18:12;;;;;;;9.48;3.50;;;8.40;99.90;;;;;;5063302;28;21010;-74
2021/11/22 12:21:04;;;;;;;5.13;3.50;;;8.40;99.90;;;;;;5062326;28;20669;-73
2021/11/22 12:23:52;;;;;;;5.95;3.00;;;8.20;99.90;;;;;;5059833;28;20233;-73
2021/11/22 12:26:38;;;;;;;4.60;3.10;;;8.20;99.90;;;;;;5054112;28;20205;-73
2021/11/22 12:29:30;;;;;;;4.82;2.63;;;8.30;99.90;;;;;;5063265;28;20581;-73
2021/11/22 12:32:26;;;;;;;3.50;2.55;;;8.30;99.90;;;;;;5062974;28;20196;-73
2021/11/22 12:35:11;;;;;;;6.45;3.20;;;8.40;99.90;;;;;;5064675;28;20721;-73
2021/11/22 12:38:17;;;;;;;4.82;2.63;;;8.40;99.90;;;;;;5059929;28;20291;-73
2021/11/22 12:41:06;;;;;;;3.90;2.67;;;8.40;99.90;;;;;;5069693;28;20274;-73
2021/11/22 12:43:54;;;;;;;4.57;2.07;;;8.50;99.90;;;;;;5068162;28;20541;-73
2021/11/22 12:46:47;;;;;;;3.80;2.73;;;8.50;99.90;;;;;;5064777;28;20461;-73
2021/11/22 12:49:41;;;;;;;3.80;2.10;;;8.50;99.90;;;;;;5062073;28;20756;-73
2021/11/22 12:52:29;;;;;;;4.80;2.70;;;8.60;99.90;;;;;;5063809;28;20411;-73
2021/11/22 12:55:19;;;;;;;3.70;2.43;;;8.60;99.90;;;;;;5071808;28;21072;-73
2021/11/22 12:58:09;;;;;;;2.67;1.50;;;8.60;99.90;;;;;;5064808;28;20414;-71
2021/11/22 13:00:56;;;;;;;3.00;2.10;;;8.60;99.90;;;;;;5071332;28;20438;-71
2021/11/22 13:03:51;;;;;;;2.90;2.05;;;8.70;99.90;;;;;;5062814;28;20217;-72
2021/11/22 13:06:39;;;;;;;2.67;2.17;;;8.60;99.90;;;;;;5061682;28;20267;-71
2021/11/22 13:09:40;;;;;;;3.00;1.97;;;8.60;99.90;;;;;;5059170;28;20689;-74
2021/11/22 13:12:33;;;;;;;2.63;1.80;;;8.60;99.90;;;;;;5062174;28;20511;-73
2021/11/22 13:15:32;;;;;;;2.33;1.60;;;8.60;99.90;;;;;;5059886;28;20474;-73
2021/11/22 13:18:18;;;;;;;4.83;3.00;;;8.60;99.90;;;;;;5063996;28;20438;-74
2021/11/22 13:21:07;;;;;;;2.80;2.23;;;8.50;99.90;;;;;;5062680;28;20816;-73
2021/11/22 13:23:55;;;;;;;4.03;2.65;;;8.60;99.90;;;;;;5059630;28;20809;-73
2021/11/22 13:26:42;;;;;;;2.50;1.80;;;8.60;99.90;;;;;;5060008;28;20262;-73
2021/11/22 13:29:31;;;;;;;4.30;2.00;;;8.60;99.90;;;;;;5069373;28;20274;-73
2021/11/22 13:32:17;;;;;;;5.20;2.08;;;8.70;99.90;;;;;;5067645;28;20451;-73
2021/11/22 13:35:02;;;;;;;3.63;1.80;;;8.80;99.90;;;;;;5068363;28;20227;-73
2021/11/22 13:38:06;;;;;;;2.58;1.60;;;8.70;99.90;;;;;;5059406;28;20573;-73
2021/11/22 13:40:55;;;;;;;2.60;1.57;;;8.70;99.90;;;;;;5063521;28;20196;-73
2021/11/22 13:43:41;;;;;;;3.20;1.73;;;8.80;99.90;;;;;;5063168;28;20995;-72
2021/11/22 13:46:28;;;;;;;2.00;1.40;;;8.80;99.90;;;;;;5062289;28;20443;-73
2021/11/22 13:49:14;;;;;;;4.10;1.50;;;8.80;99.90;;;;;;5054785;28;20419;-73
2021/11/22 13:52:00;;;;;;;5.90;2.03;;;8.80;99.90;;;;;;5061058;28;20443;-73
2021/11/22 13:54:45;;;;;;;4.40;1.10;;;8.70;99.90;;;;;;5071183;28;20478;-72
2021/11/22 13:57:31;;;;;;;1.83;1.30;;;8.70;99.90;;;;;;5061153;28;20447;-73
2021/11/22 14:00:18;;;;;;;2.60;1.40;;;8.70;99.90;;;;;;5053458;28;20490;-73
2021/11/22 14:03:09;;;;;;;2.33;1.17;;;8.70;99.90;;;;;;5062484;28;21037;-73
2021/11/22 14:05:56;;;;;;;2.10;1.03;;;8.60;99.90;;;;;;5070919;28;20434;-73
2021/11/22 14:08:43;;;;;;;2.80;1.00;;;8.60;99.90;;;;;;5058744;28;20480;-73
2021/11/22 14:11:29;;;;;;;1.97;1.10;;;8.60;99.90;;;;;;5060074;28;20443;-73
2021/11/22 14:14:17;;;;;;;2.67;1.37;;;8.60;99.90;;;;;;5060954;28;20470;-73
2021/11/22 14:17:04;;;;;;;2.43;1.03;;;8.60;99.90;;;;;;5056659;28;20522;-73
2021/11/22 14:20:09;;;;;;;1.90;1.20;;;8.60;99.90;;;;;;5051880;28;20521;-73
2021/11/22 14:23:03;;;;;;;2.37;1.30;;;8.60;99.90;;;;;;5062440;28;20443;-75
2021/11/22 14:25:58;;;;;;;2.50;1.15;;;8.60;99.90;;;;;;5061134;28;20442;-73
2021/11/22 14:28:46;;;;;;;3.50;1.40;;;8.50;99.90;;;;;;5054310;28;20303;-73
2021/11/22 14:31:31;;;;;;;2.10;1.20;;;8.50;99.90;;;;;;5055982;28;20971;-73
2021/11/22 14:34:20;;;;;;;1.93;0.93;;;8.60;99.90;;;;;;5060668;28;20479;-73